createdAt,value
2019-02-05T07:15:47.073Z,-0.80
2019-02-05T07:18:28.246Z,-0.70
2019-02-05T07:21:09.683Z,-0.70
2019-02-05T07:26:35.253Z,-0.70
2019-02-05T07:29:15.722Z,-0.70
2019-02-05T07:31:44.507Z,-0.70
2019-02-05T07:34:13.518Z,-0.60
2019-02-05T07:36:42.278Z,-0.50
2019-02-05T07:39:11.435Z,-0.50
2019-02-05T07:41:40.198Z,-0.50
2019-02-05T07:44:08.949Z,-0.40
2019-02-05T07:46:37.709Z,-0.40
2019-02-05T07:49:06.410Z,-0.50
2019-02-05T07:51:35.111Z,-0.50
2019-02-05T07:54:03.897Z,-0.50
2019-02-05T07:56:33.075Z,-0.50
2019-02-05T07:59:09.829Z,-0.50
2019-02-05T08:01:32.249Z,-0.40
2019-02-05T08:04:01.005Z,-0.40
2019-02-05T08:06:29.774Z,-0.40
2019-02-05T08:08:58.457Z,-0.40
2019-02-05T08:11:27.302Z,-0.30
2019-02-05T08:13:56.898Z,-0.30
2019-02-05T08:16:25.670Z,-0.30
2019-02-05T08:18:54.434Z,-0.30
2019-02-05T08:21:23.284Z,-0.20
2019-02-05T08:23:52.039Z,-0.10
2019-02-05T08:26:20.726Z,-0.20
2019-02-05T08:28:49.411Z,-0.20
2019-02-05T08:31:18.183Z,-0.20
2019-02-05T08:33:47.346Z,-0.10
2019-02-05T08:36:16.121Z,-0.10
2019-02-05T08:38:44.882Z,-0.10
2019-02-05T08:41:13.650Z,0.00
2019-02-05T08:43:42.412Z,0.00
2019-02-05T08:46:11.190Z,0.00
2019-02-05T08:48:39.958Z,0.00
2019-02-05T08:51:09.119Z,0.00
2019-02-05T08:53:37.871Z,0.10
2019-02-05T08:56:06.629Z,0.10
2019-02-05T08:58:35.391Z,0.20
2019-02-05T09:01:05.025Z,0.20
2019-02-05T09:03:33.778Z,0.20
2019-02-05T09:06:02.479Z,0.20
2019-02-05T09:08:31.542Z,0.30
2019-02-05T09:11:00.382Z,0.30
2019-02-05T09:13:29.146Z,0.30
2019-02-05T09:15:57.918Z,0.30
2019-02-05T09:18:26.684Z,0.40
2019-02-05T09:20:55.529Z,0.40
2019-02-05T09:23:24.358Z,0.40
2019-02-05T09:25:53.696Z,0.40
2019-02-05T09:28:22.446Z,0.50
2019-02-05T09:30:51.209Z,0.50
2019-02-05T09:33:19.980Z,0.60
2019-02-05T09:35:48.747Z,0.60
2019-02-05T09:38:17.509Z,0.70
2019-02-05T09:40:46.340Z,0.80
2019-02-05T09:43:15.532Z,0.80
2019-02-05T09:45:44.339Z,0.80
2019-02-05T09:48:13.185Z,0.80
2019-02-05T09:50:44.787Z,0.90
2019-02-05T09:53:12.363Z,0.90
2019-02-05T09:55:41.118Z,0.90
2019-02-05T09:58:09.921Z,1.00
2019-02-05T10:00:40.208Z,1.00
2019-02-05T10:03:09.244Z,1.00
2019-02-05T10:05:38.073Z,1.00
2019-02-05T10:08:07.212Z,1.10
2019-02-05T10:10:35.970Z,1.10
2019-02-05T10:13:05.302Z,1.20
2019-02-05T10:15:35.509Z,1.20
2019-02-05T10:18:05.741Z,1.30
2019-02-05T10:20:34.427Z,1.40
2019-02-05T10:23:05.263Z,1.30
2019-02-05T10:25:34.189Z,1.40
2019-02-05T10:28:03.028Z,1.40
2019-02-05T10:30:34.075Z,1.40
2019-02-05T10:33:03.777Z,1.40
2019-02-05T10:35:32.601Z,1.40
2019-02-05T10:38:01.425Z,1.30
2019-02-05T10:40:30.483Z,1.30
2019-02-05T10:42:59.187Z,1.40
2019-02-05T10:45:28.185Z,1.50
2019-02-05T10:47:57.038Z,1.60
2019-02-05T10:50:26.074Z,1.70
2019-02-05T10:52:54.914Z,1.70
2019-02-05T10:55:23.975Z,1.70
2019-02-05T10:57:53.017Z,1.90
2019-02-05T11:00:25.409Z,1.90
2019-02-05T11:02:54.834Z,1.90
2019-02-05T11:05:25.826Z,1.80
2019-02-05T11:07:54.662Z,1.90
2019-02-05T11:10:23.466Z,1.90
2019-02-05T11:12:52.310Z,1.90
2019-02-05T11:15:23.317Z,1.80
2019-02-05T11:17:52.081Z,2.00
2019-02-05T11:20:22.859Z,2.00
2019-02-05T11:22:51.815Z,2.00
2019-02-05T11:25:20.916Z,2.10
2019-02-05T11:27:49.691Z,2.20
2019-02-05T11:30:26.610Z,2.40
2019-02-05T11:32:55.446Z,2.40
2019-02-05T11:35:24.272Z,2.40
2019-02-05T11:37:53.427Z,2.40
2019-02-05T11:40:24.614Z,2.40
2019-02-05T11:42:53.371Z,2.30
2019-02-05T11:45:22.475Z,2.30
2019-02-05T11:47:51.582Z,2.30
2019-02-05T11:50:20.402Z,2.30
2019-02-05T11:52:49.326Z,2.30
2019-02-05T11:55:19.808Z,2.40
2019-02-05T11:57:48.568Z,2.50
2019-02-05T12:00:32.584Z,2.60
2019-02-05T12:02:55.953Z,2.60
2019-02-05T12:05:24.705Z,2.60
2019-02-05T12:07:53.842Z,2.60
2019-02-05T12:10:22.610Z,2.60
2019-02-05T12:12:51.374Z,2.70
2019-02-05T12:15:20.284Z,2.70
2019-02-05T12:17:49.389Z,2.70
2019-02-05T12:20:18.331Z,2.80
2019-02-05T12:22:48.301Z,2.90
2019-02-05T12:25:17.449Z,2.90
2019-02-05T12:27:46.393Z,2.90
2019-02-05T12:30:18.868Z,2.90
2019-02-05T12:32:47.834Z,2.90
2019-02-05T12:35:16.670Z,3.00
2019-02-05T12:37:45.431Z,3.00
2019-02-05T12:40:15.399Z,3.00
2019-02-05T12:42:44.649Z,3.00
2019-02-05T12:45:16.257Z,3.10
2019-02-05T12:47:44.955Z,3.10
2019-02-05T12:50:16.908Z,3.30
2019-02-05T12:52:45.751Z,3.20
2019-02-05T12:55:16.295Z,3.20
2019-02-05T12:57:45.309Z,3.10
2019-02-05T13:00:17.949Z,3.00
2019-02-05T13:02:46.714Z,3.00
2019-02-05T13:05:16.326Z,2.90
2019-02-05T13:07:45.005Z,2.80
2019-02-05T13:10:15.825Z,2.90
2019-02-05T13:12:44.492Z,2.90
2019-02-05T13:15:13.534Z,2.90
2019-02-05T13:17:42.210Z,2.80
2019-02-05T13:20:17.639Z,2.80
2019-02-05T13:22:46.413Z,2.80
2019-02-05T13:25:18.081Z,2.70
2019-02-05T13:27:46.830Z,2.70
2019-02-05T13:30:18.011Z,2.60
2019-02-05T13:32:46.690Z,2.50
2019-02-05T13:35:15.799Z,2.50
2019-02-05T13:37:44.478Z,2.50
2019-02-05T13:40:15.627Z,2.50
2019-02-05T13:42:44.299Z,2.50
2019-02-05T13:45:13.887Z,2.40
2019-02-05T13:47:42.567Z,2.40
2019-02-05T13:50:14.870Z,2.40
2019-02-05T13:52:43.815Z,2.50
2019-02-05T13:55:16.031Z,2.40
2019-02-05T13:57:44.719Z,2.40
2019-02-05T14:00:17.930Z,2.40
2019-02-05T14:02:46.606Z,2.50
2019-02-05T14:05:15.285Z,2.40
2019-02-05T14:07:44.333Z,2.40
2019-02-05T14:10:16.747Z,2.40
2019-02-05T14:12:45.426Z,2.40
2019-02-05T14:15:14.611Z,2.40
2019-02-05T14:17:43.298Z,2.40
2019-02-05T14:20:13.231Z,2.50
2019-02-05T14:22:42.378Z,2.40
2019-02-05T14:25:12.359Z,2.40
2019-02-05T14:27:41.038Z,2.50
2019-02-05T14:30:14.387Z,2.50
2019-02-05T14:32:43.154Z,2.50
2019-02-05T14:35:11.913Z,2.50
2019-02-05T14:37:40.862Z,2.40
2019-02-05T14:40:12.158Z,2.50
2019-02-05T14:42:40.866Z,2.50
2019-02-05T14:45:10.543Z,2.40
2019-02-05T14:47:39.230Z,2.40
2019-02-05T14:50:12.738Z,2.40
2019-02-05T14:52:41.418Z,2.40
2019-02-05T14:55:10.253Z,2.30
2019-02-05T14:57:38.936Z,2.30
2019-02-05T15:00:11.149Z,2.30
2019-02-05T15:02:39.826Z,2.30
2019-02-05T15:05:09.551Z,2.20
2019-02-05T15:07:38.231Z,2.20
2019-02-05T15:10:08.761Z,2.10
2019-02-05T15:12:37.516Z,2.10
2019-02-05T15:15:08.898Z,2.10
2019-02-05T15:17:37.703Z,2.00
2019-02-05T15:20:10.987Z,2.00
2019-02-05T15:22:39.687Z,2.00
2019-02-05T15:25:09.102Z,1.90
2019-02-05T15:27:37.775Z,1.90
2019-02-05T15:30:09.825Z,1.90
2019-02-05T15:32:45.896Z,1.80
2019-02-05T15:35:14.666Z,1.80
2019-02-05T15:37:43.440Z,1.80
2019-02-05T15:40:12.822Z,1.80
2019-02-05T15:42:41.493Z,1.80
2019-02-05T15:45:11.191Z,1.70
2019-02-05T15:47:40.238Z,1.70
2019-02-05T15:50:09.084Z,1.70
2019-02-05T15:52:37.769Z,1.60
2019-02-05T15:55:07.049Z,1.60
2019-02-05T15:57:35.728Z,1.70
2019-02-05T16:00:06.441Z,1.60
2019-02-05T16:02:35.485Z,1.60
2019-02-05T16:05:05.491Z,1.60
2019-02-05T16:07:34.153Z,1.60
2019-02-05T16:10:02.915Z,1.60
2019-02-05T16:12:31.594Z,1.60
2019-02-05T16:15:00.404Z,1.60
2019-02-05T16:17:29.119Z,1.50
2019-02-05T16:19:57.791Z,1.50
2019-02-05T16:22:26.767Z,1.50
2019-02-05T16:24:55.622Z,1.40
2019-02-05T16:27:24.393Z,1.50
2019-02-05T16:29:53.334Z,1.50
2019-02-05T16:32:22.022Z,1.40
2019-02-05T16:34:51.194Z,1.50
2019-02-05T16:37:19.883Z,1.40
2019-02-05T16:39:48.555Z,1.40
2019-02-05T16:42:17.233Z,1.40
2019-02-05T16:44:45.985Z,1.40
2019-02-05T16:47:14.678Z,1.40
2019-02-05T16:49:45.086Z,1.50
2019-02-05T16:52:13.782Z,1.40
2019-02-05T16:54:42.459Z,1.40
2019-02-05T16:57:11.154Z,1.40
2019-02-05T16:59:39.848Z,1.30
2019-02-05T17:02:08.682Z,1.30
2019-02-05T17:04:37.367Z,1.30
2019-02-05T17:07:06.377Z,1.30
2019-02-05T17:09:35.054Z,1.30
2019-02-05T17:12:03.814Z,1.30
2019-02-05T17:14:32.493Z,1.30
2019-02-05T17:17:01.259Z,1.20
2019-02-05T17:19:31.810Z,1.20
2019-02-05T17:22:00.347Z,1.20
2019-02-05T17:24:29.034Z,1.20
2019-02-05T17:26:57.790Z,1.20
2019-02-05T17:29:26.468Z,1.20
2019-02-05T17:31:55.235Z,1.20
2019-02-05T17:34:23.911Z,1.20
2019-02-05T17:36:53.078Z,1.20
2019-02-05T17:39:21.766Z,1.10
2019-02-05T17:41:50.522Z,1.20
2019-02-05T17:44:19.193Z,1.20
2019-02-05T17:46:47.881Z,1.20
2019-02-05T17:49:16.710Z,1.20
2019-02-05T17:51:45.397Z,1.20
2019-02-05T17:54:15.145Z,1.10
2019-02-05T17:56:44.133Z,1.10
2019-02-05T17:59:12.888Z,1.10
2019-02-05T18:01:41.584Z,1.10
2019-02-05T18:04:10.260Z,1.10
2019-02-05T18:06:38.959Z,1.20
2019-02-05T18:09:09.191Z,1.20
2019-02-05T18:11:37.890Z,1.20
2019-02-05T18:14:06.727Z,1.20
2019-02-05T18:16:35.426Z,1.30
2019-02-05T18:19:04.179Z,1.30
2019-02-05T18:21:32.879Z,1.30
2019-02-05T18:24:01.855Z,1.30
2019-02-05T18:26:30.549Z,1.20
2019-02-05T18:28:59.318Z,1.20
2019-02-05T18:31:28.102Z,1.20
2019-02-05T18:33:56.803Z,1.30
2019-02-05T18:36:25.507Z,1.30
2019-02-05T18:38:54.198Z,1.30
2019-02-05T18:41:22.880Z,1.30
2019-02-05T18:43:51.657Z,1.30
2019-02-05T18:46:20.497Z,1.30
2019-02-05T18:48:49.168Z,1.30
2019-02-05T18:51:17.853Z,1.30
2019-02-05T18:53:46.538Z,1.30
2019-02-05T18:56:15.573Z,1.30
2019-02-05T18:58:44.271Z,1.20
2019-02-05T19:01:13.011Z,1.20
2019-02-05T19:03:41.711Z,1.20
2019-02-05T19:06:10.382Z,1.20
2019-02-05T19:08:39.053Z,1.20
2019-02-05T19:11:08.729Z,1.20
2019-02-05T19:13:37.472Z,1.20
2019-02-05T19:16:06.230Z,1.30
2019-02-05T19:18:34.900Z,1.20
2019-02-05T19:21:03.549Z,1.30
2019-02-05T19:23:32.216Z,1.20
2019-02-05T19:26:08.974Z,1.30
2019-02-05T19:28:41.940Z,1.30
2019-02-05T19:31:38.969Z,1.30
2019-02-05T19:34:08.198Z,1.30
2019-02-05T19:36:36.929Z,1.30
2019-02-05T19:39:07.796Z,1.30
2019-02-05T19:41:36.470Z,1.30
2019-02-05T19:44:05.307Z,1.20
2019-02-05T19:46:51.961Z,1.20
2019-02-05T19:49:36.026Z,1.10
2019-02-05T19:52:05.674Z,1.10
2019-02-05T19:54:34.374Z,1.10
2019-02-05T19:57:03.134Z,1.10
2019-02-05T19:59:31.834Z,1.10
2019-02-05T20:02:00.791Z,1.10
2019-02-05T20:04:29.554Z,1.10
2019-02-05T20:06:58.230Z,1.10
2019-02-05T20:09:26.932Z,1.10
2019-02-05T20:11:55.661Z,1.20
2019-02-05T20:14:24.423Z,1.20
2019-02-05T20:16:53.108Z,1.20
2019-02-05T20:19:24.596Z,1.10
2019-02-05T20:21:52.547Z,1.20
2019-02-05T20:24:21.318Z,1.10
2019-02-05T20:26:50.041Z,1.10
2019-02-05T20:29:18.790Z,1.20
2019-02-05T20:31:47.470Z,1.20
2019-02-05T20:34:16.152Z,1.20
2019-02-05T20:36:44.999Z,1.20
2019-02-05T20:39:15.508Z,1.20
2019-02-05T20:41:44.276Z,1.30
2019-02-05T20:44:12.969Z,1.20
2019-02-05T20:46:41.715Z,1.30
2019-02-05T20:49:10.393Z,1.30
2019-02-05T20:51:39.130Z,1.30
2019-02-05T20:54:08.214Z,1.30
2019-02-05T20:56:36.894Z,1.40
2019-02-05T20:59:06.134Z,1.40
2019-02-05T21:01:34.816Z,1.50
2019-02-05T21:04:03.770Z,1.50
2019-02-05T21:06:32.446Z,1.50
2019-02-05T21:09:01.134Z,1.50
2019-02-05T21:11:30.104Z,1.50
2019-02-05T21:13:58.933Z,1.50
2019-02-05T21:16:27.613Z,1.50
2019-02-05T21:18:56.399Z,1.50
2019-02-05T21:21:25.066Z,1.50
2019-02-05T21:23:53.749Z,1.50
2019-02-05T21:26:22.414Z,1.50
2019-02-05T21:28:51.081Z,1.50
2019-02-05T21:31:19.912Z,1.50
2019-02-05T21:33:48.618Z,1.50
2019-02-05T21:36:17.287Z,1.50
2019-02-05T21:38:46.032Z,1.50
2019-02-05T21:41:14.704Z,1.50
2019-02-05T21:43:43.758Z,1.50
2019-02-05T21:46:12.436Z,1.50
2019-02-05T21:48:41.128Z,1.50
2019-02-05T21:51:09.963Z,1.50
2019-02-05T21:53:38.663Z,1.50
2019-02-05T21:56:07.415Z,1.50
2019-02-05T21:58:36.179Z,1.50
2019-02-05T22:01:05.739Z,1.50
2019-02-05T22:03:34.505Z,1.50
